Time;durP1;ratioP1;P1;durP2;ratioP2;P2;SDS_P1;SDS_P2;PMS_P1;PMS_P2;Temp;Humidity;BMP_temperature;BMP_pressure;BME280_temperature;BME280_humidity;BME280_pressure;Samples;Min_cycle;Max_cycle;Signal;HPM_P1;HPM_P2
2022/11/26 00:00:29;;;;;;;11.65;6.03;;;17.30;54.30;;;;;;4957631;28;20288;-64
2022/11/26 00:02:56;;;;;;;11.20;5.70;;;17.20;54.30;;;;;;4957467;28;20194;-63
2022/11/26 00:05:24;;;;;;;10.02;5.63;;;17.20;54.40;;;;;;4957545;28;20245;-64
2022/11/26 00:07:54;;;;;;;10.50;5.75;;;17.20;54.20;;;;;;4957279;28;20605;-64
2022/11/26 00:10:23;;;;;;;9.88;5.60;;;17.20;54.30;;;;;;4957326;28;20204;-64
2022/11/26 00:12:50;;;;;;;12.00;6.35;;;17.10;54.50;;;;;;4974648;28;20301;-64
2022/11/26 00:15:19;;;;;;;9.10;5.30;;;17.10;56.30;;;;;;4974943;28;20190;-64
2022/11/26 00:17:46;;;;;;;8.68;5.10;;;17.10;57.10;;;;;;4974563;28;20221;-64
2022/11/26 00:20:13;;;;;;;8.85;4.85;;;17.10;58.10;;;;;;4974680;28;20720;-64
2022/11/26 00:22:41;;;;;;;9.35;5.60;;;17.00;57.50;;;;;;4957218;28;20201;-64
2022/11/26 00:25:15;;;;;;;9.05;5.22;;;17.00;57.40;;;;;;4974507;28;20613;-64
2022/11/26 00:27:42;;;;;;;9.23;5.28;;;17.00;56.90;;;;;;4957099;28;20226;-64
2022/11/26 00:30:16;;;;;;;8.32;5.20;;;17.00;57.30;;;;;;4975043;28;20182;-64
2022/11/26 00:32:44;;;;;;;8.75;5.00;;;17.00;56.20;;;;;;4957355;28;20209;-65
2022/11/26 00:35:11;;;;;;;8.38;4.65;;;16.90;55.90;;;;;;4974642;28;20194;-64
2022/11/26 00:37:40;;;;;;;7.03;4.47;;;16.90;55.90;;;;;;4974342;28;20696;-64
2022/11/26 00:40:18;;;;;;;9.57;4.88;;;16.90;55.80;;;;;;4957027;28;20204;-64
2022/11/26 00:42:46;;;;;;;7.60;4.50;;;16.90;55.80;;;;;;4974717;28;20202;-64
2022/11/26 00:45:18;;;;;;;6.90;4.22;;;16.90;55.80;;;;;;4957076;28;20202;-64
2022/11/26 00:47:45;;;;;;;6.90;4.40;;;16.90;56.00;;;;;;4974255;28;20206;-64
2022/11/26 00:50:16;;;;;;;8.68;4.70;;;16.90;56.30;;;;;;4974266;28;20237;-64
2022/11/26 00:52:44;;;;;;;8.55;4.50;;;16.80;56.30;;;;;;4974201;28;20190;-65
2022/11/26 00:55:28;;;;;;;8.02;4.40;;;16.80;56.90;;;;;;4956960;28;20280;-64
2022/11/26 00:57:56;;;;;;;7.60;4.45;;;16.80;56.30;;;;;;4974156;28;20722;-64
2022/11/26 01:00:24;;;;;;;8.73;4.65;;;16.80;56.30;;;;;;4956773;28;20308;-64
2022/11/26 01:02:52;;;;;;;6.40;4.70;;;16.70;56.20;;;;;;4974102;28;20216;-64
2022/11/26 01:05:19;;;;;;;7.53;4.30;;;16.70;56.00;;;;;;4974067;28;20281;-64
2022/11/26 01:07:46;;;;;;;7.93;4.70;;;16.70;56.20;;;;;;4956771;28;20584;-64
2022/11/26 01:10:18;;;;;;;5.57;4.25;;;16.70;56.20;;;;;;4956737;28;20273;-64
2022/11/26 01:12:46;;;;;;;5.40;4.22;;;16.70;56.10;;;;;;4974092;28;20190;-64
2022/11/26 01:15:14;;;;;;;7.30;4.38;;;16.70;56.00;;;;;;4956829;28;20206;-64
2022/11/26 01:17:41;;;;;;;6.78;4.53;;;16.70;56.00;;;;;;4977048;28;20217;-64
2022/11/26 01:20:20;;;;;;;7.00;4.25;;;16.70;55.60;;;;;;4961132;28;20245;-64
2022/11/26 01:22:47;;;;;;;6.40;4.38;;;16.70;55.10;;;;;;4977735;28;20182;-64
2022/11/26 01:25:14;;;;;;;7.03;4.43;;;16.70;55.20;;;;;;4977627;28;20280;-64
2022/11/26 01:27:41;;;;;;;5.32;4.18;;;16.70;55.00;;;;;;4960540;28;20698;-64
2022/11/26 01:30:13;;;;;;;5.18;3.75;;;16.70;54.80;;;;;;4960234;28;20300;-64
2022/11/26 01:32:40;;;;;;;7.32;4.18;;;16.70;54.70;;;;;;4977623;28;20269;-64
2022/11/26 01:35:08;;;;;;;8.82;4.43;;;16.70;54.70;;;;;;4960219;28;20827;-64
2022/11/26 01:37:35;;;;;;;6.07;3.92;;;16.70;54.70;;;;;;4977488;28;20292;-64
2022/11/26 01:40:02;;;;;;;6.68;3.95;;;16.70;54.70;;;;;;4960001;28;20225;-64
2022/11/26 01:42:34;;;;;;;7.70;3.72;;;16.70;54.60;;;;;;4977218;28;20237;-65
2022/11/26 01:45:01;;;;;;;5.40;3.90;;;16.70;55.00;;;;;;4960071;28;20230;-64
2022/11/26 01:47:30;;;;;;;5.55;4.38;;;16.70;54.70;;;;;;4977158;28;20300;-64
2022/11/26 01:50:46;;;;;;;7.03;3.90;;;16.70;54.70;;;;;;4959834;28;20202;-64
2022/11/26 01:53:15;;;;;;;7.63;4.00;;;16.70;54.70;;;;;;4920737;29;20255;-64
2022/11/26 01:55:44;;;;;;;5.88;3.95;;;16.70;54.70;;;;;;4951220;28;20202;-65
2022/11/26 01:58:12;;;;;;;7.05;3.70;;;16.60;54.70;;;;;;4977216;28;20218;-64
2022/11/26 02:00:40;;;;;;;6.13;3.78;;;16.60;54.80;;;;;;4959927;28;20260;-64
2022/11/26 02:03:08;;;;;;;6.20;3.70;;;16.60;54.60;;;;;;4960155;28;20198;-64
2022/11/26 02:05:38;;;;;;;5.70;3.95;;;16.60;54.50;;;;;;4959938;28;20214;-64
2022/11/26 02:08:06;;;;;;;6.45;3.75;;;16.60;54.50;;;;;;4980907;28;20222;-63
2022/11/26 02:10:33;;;;;;;5.15;3.75;;;16.60;54.60;;;;;;4982764;28;20241;-64
2022/11/26 02:13:00;;;;;;;5.63;3.88;;;16.60;54.60;;;;;;4960710;28;20678;-64
2022/11/26 02:15:29;;;;;;;6.65;4.00;;;16.60;54.60;;;;;;4985065;28;20267;-64
2022/11/26 02:17:59;;;;;;;5.68;4.00;;;16.60;54.70;;;;;;4981767;28;20206;-63
2022/11/26 02:20:35;;;;;;;4.95;3.60;;;16.60;54.60;;;;;;4975482;28;20229;-63
2022/11/26 02:23:09;;;;;;;5.90;3.80;;;16.60;54.70;;;;;;4960204;28;20209;-64
2022/11/26 02:25:46;;;;;;;4.85;3.67;;;16.60;54.70;;;;;;4977288;28;20178;-63
2022/11/26 02:28:20;;;;;;;5.18;3.40;;;16.60;54.70;;;;;;4976471;28;20220;-64
2022/11/26 02:30:51;;;;;;;6.60;3.58;;;16.60;54.60;;;;;;4976968;28;20661;-64
2022/11/26 02:33:21;;;;;;;5.63;3.78;;;16.50;54.60;;;;;;4959265;28;20194;-64
2022/11/26 02:35:51;;;;;;;5.38;3.55;;;16.60;54.60;;;;;;4977036;28;20246;-64
2022/11/26 02:38:19;;;;;;;3.97;3.13;;;16.60;54.70;;;;;;4976640;28;20722;-64
2022/11/26 02:40:47;;;;;;;5.07;3.28;;;16.50;54.50;;;;;;4959015;28;20310;-64
2022/11/26 02:43:14;;;;;;;5.60;3.67;;;16.60;54.70;;;;;;4976376;28;20222;-64
2022/11/26 02:45:42;;;;;;;6.03;3.63;;;16.50;54.60;;;;;;4959277;28;20206;-64
2022/11/26 02:48:13;;;;;;;5.90;3.20;;;16.50;54.60;;;;;;4976532;28;20214;-64
2022/11/26 02:50:42;;;;;;;5.22;3.40;;;16.50;54.50;;;;;;4976531;28;20577;-64
2022/11/26 02:53:10;;;;;;;5.53;3.42;;;16.50;54.60;;;;;;4958843;28;20290;-64
2022/11/26 02:55:38;;;;;;;5.10;3.50;;;16.50;54.50;;;;;;4976051;28;20201;-64
2022/11/26 02:58:05;;;;;;;6.35;3.10;;;16.50;54.40;;;;;;4976065;28;20217;-64
2022/11/26 03:00:33;;;;;;;5.38;3.35;;;16.50;54.50;;;;;;4975826;28;20590;-64
2022/11/26 03:03:02;;;;;;;5.07;3.17;;;16.50;54.40;;;;;;4976378;28;20277;-64
2022/11/26 03:05:34;;;;;;;4.38;3.22;;;16.50;54.40;;;;;;4958477;28;20268;-64
2022/11/26 03:08:01;;;;;;;3.90;3.10;;;16.50;54.50;;;;;;4974760;23;20225;-72
2022/11/26 03:10:28;;;;;;;4.38;2.90;;;16.50;54.50;;;;;;5015787;28;20232;-72
2022/11/26 03:12:56;;;;;;;4.88;3.33;;;16.50;55.00;;;;;;5016576;28;20185;-72
2022/11/26 03:15:22;;;;;;;4.03;2.90;;;16.50;54.40;;;;;;5015880;28;20192;-72
2022/11/26 03:17:50;;;;;;;4.28;3.10;;;16.40;54.50;;;;;;5014842;28;20204;-72
2022/11/26 03:20:17;;;;;;;4.35;3.53;;;16.50;54.50;;;;;;5014709;28;20239;-71
2022/11/26 03:22:46;;;;;;;4.13;2.80;;;16.40;54.50;;;;;;5014643;28;20221;-71
2022/11/26 03:25:12;;;;;;;3.95;3.05;;;16.40;54.40;;;;;;5014055;28;20570;-71
2022/11/26 03:27:39;;;;;;;5.22;3.20;;;16.50;54.50;;;;;;5014292;28;20204;-71
2022/11/26 03:30:07;;;;;;;3.80;3.10;;;16.40;55.10;;;;;;5013799;28;20776;-71
2022/11/26 03:32:34;;;;;;;3.65;2.80;;;16.40;54.50;;;;;;5013837;28;20199;-71
2022/11/26 03:35:04;;;;;;;5.00;3.30;;;16.40;54.50;;;;;;5038298;22;20204;-76
2022/11/26 03:37:31;;;;;;;5.25;3.22;;;16.40;54.40;;;;;;5134037;23;20283;-72
2022/11/26 03:39:59;;;;;;;4.38;2.80;;;16.40;54.50;;;;;;5028752;23;20224;-75
2022/11/26 03:42:26;;;;;;;5.05;3.10;;;16.40;54.50;;;;;;5013530;28;20291;-75
2022/11/26 03:44:53;;;;;;;4.97;3.13;;;16.40;54.50;;;;;;5013557;28;20196;-75
2022/11/26 03:47:21;;;;;;;4.30;3.00;;;16.40;54.50;;;;;;5013722;28;20292;-75
2022/11/26 03:49:48;;;;;;;3.92;3.00;;;16.40;54.60;;;;;;5013495;28;20709;-75
2022/11/26 03:52:15;;;;;;;3.75;2.83;;;16.40;54.60;;;;;;5013986;28;20205;-75
2022/11/26 03:54:42;;;;;;;3.83;3.05;;;16.40;54.50;;;;;;5014483;28;20727;-75
2022/11/26 03:57:11;;;;;;;4.20;2.90;;;16.40;54.50;;;;;;5016315;28;20269;-75
2022/11/26 03:59:38;;;;;;;3.60;2.88;;;16.40;54.60;;;;;;5014206;28;20220;-75
2022/11/26 04:02:05;;;;;;;3.17;2.88;;;16.30;54.50;;;;;;5013658;28;20240;-75
2022/11/26 04:04:32;;;;;;;3.55;2.78;;;16.30;54.50;;;;;;5014284;28;20203;-75
2022/11/26 04:06:59;;;;;;;3.30;2.85;;;16.30;54.40;;;;;;5013568;28;20205;-75
2022/11/26 04:09:28;;;;;;;3.85;2.83;;;16.40;54.50;;;;;;5013214;28;20217;-75
2022/11/26 04:11:55;;;;;;;5.28;2.95;;;16.30;54.30;;;;;;5014474;28;20268;-75
2022/11/26 04:14:23;;;;;;;4.28;2.92;;;16.30;54.20;;;;;;5013134;28;20200;-75
2022/11/26 04:16:50;;;;;;;4.85;3.10;;;16.30;54.50;;;;;;5013087;28;20193;-75
2022/11/26 04:19:17;;;;;;;4.43;3.30;;;16.30;54.70;;;;;;5013023;28;20224;-75
2022/11/26 04:21:44;;;;;;;4.13;2.75;;;16.30;54.70;;;;;;5012849;28;20644;-75
2022/11/26 04:24:12;;;;;;;3.72;2.78;;;16.30;54.70;;;;;;5012983;28;20196;-75
2022/11/26 04:26:39;;;;;;;4.65;2.63;;;16.30;54.90;;;;;;5012964;28;20196;-75
2022/11/26 04:29:06;;;;;;;4.47;2.80;;;16.30;54.70;;;;;;5012884;28;20230;-75
2022/11/26 04:31:34;;;;;;;4.10;2.47;;;16.40;54.70;;;;;;5012921;28;20197;-75
2022/11/26 04:34:02;;;;;;;2.75;2.13;;;16.30;54.70;;;;;;5013047;28;20200;-75
2022/11/26 04:36:29;;;;;;;4.38;2.60;;;16.30;54.60;;;;;;5012757;28;20667;-75
2022/11/26 04:38:57;;;;;;;4.97;2.58;;;16.30;54.50;;;;;;5012774;28;20687;-75
2022/11/26 04:41:24;;;;;;;2.97;2.35;;;16.40;54.90;;;;;;5013206;28;20251;-75
2022/11/26 04:43:52;;;;;;;3.33;2.60;;;16.40;54.60;;;;;;5013961;28;20197;-75
2022/11/26 04:46:19;;;;;;;3.17;2.85;;;16.40;54.70;;;;;;5012671;28;20200;-75
2022/11/26 04:48:47;;;;;;;4.90;2.80;;;16.40;54.50;;;;;;5012660;28;20652;-75
2022/11/26 04:51:14;;;;;;;2.95;2.50;;;16.40;54.50;;;;;;5013360;28;20698;-75
2022/11/26 04:53:41;;;;;;;4.20;2.72;;;16.40;54.40;;;;;;5016683;28;20219;-75
2022/11/26 04:56:10;;;;;;;3.13;2.47;;;16.40;54.50;;;;;;5016769;28;20280;-75
2022/11/26 04:58:37;;;;;;;3.95;2.78;;;16.40;54.40;;;;;;5016864;28;20758;-75
2022/11/26 05:01:04;;;;;;;3.58;2.90;;;16.40;54.40;;;;;;5017020;28;20663;-75
2022/11/26 05:03:31;;;;;;;4.32;2.78;;;16.50;54.50;;;;;;5016591;28;20205;-75
2022/11/26 05:06:00;;;;;;;4.05;2.63;;;16.40;54.20;;;;;;5016385;28;20275;-75
2022/11/26 05:08:27;;;;;;;4.07;2.40;;;16.40;54.20;;;;;;5016215;28;20727;-75
2022/11/26 05:10:54;;;;;;;3.95;2.70;;;16.40;54.00;;;;;;5016243;28;20255;-75
2022/11/26 05:13:21;;;;;;;3.58;2.60;;;16.40;54.00;;;;;;5016287;28;20197;-75
2022/11/26 05:15:49;;;;;;;3.38;2.63;;;16.40;53.70;;;;;;5016195;28;20197;-75
2022/11/26 05:18:15;;;;;;;3.38;2.40;;;16.50;53.80;;;;;;5016157;28;20263;-75
2022/11/26 05:20:42;;;;;;;3.35;2.47;;;16.50;53.60;;;;;;5016248;28;20197;-75
2022/11/26 05:23:11;;;;;;;2.97;2.65;;;16.50;53.50;;;;;;5016102;28;20311;-75
2022/11/26 05:25:38;;;;;;;3.60;2.63;;;16.50;53.40;;;;;;5016435;28;20197;-75
2022/11/26 05:28:05;;;;;;;4.63;2.65;;;16.50;53.30;;;;;;5016311;28;20205;-75
2022/11/26 05:30:33;;;;;;;3.65;2.40;;;16.50;53.20;;;;;;5017236;28;20196;-76
2022/11/26 05:32:59;;;;;;;3.10;2.35;;;16.50;53.10;;;;;;5016109;28;20193;-76
2022/11/26 05:35:27;;;;;;;4.57;2.30;;;16.50;53.10;;;;;;5016588;28;20205;-75
2022/11/26 05:37:54;;;;;;;3.47;2.30;;;16.50;53.20;;;;;;5017377;28;20243;-75
2022/11/26 05:40:23;;;;;;;2.60;2.20;;;16.50;53.00;;;;;;5016563;28;20233;-75
2022/11/26 05:42:49;;;;;;;3.22;2.22;;;16.50;53.00;;;;;;5016228;28;20228;-75
2022/11/26 05:45:17;;;;;;;3.10;2.20;;;16.50;53.00;;;;;;5016096;28;20200;-75
2022/11/26 05:47:44;;;;;;;2.95;2.42;;;16.50;52.90;;;;;;5016133;28;20200;-75
2022/11/26 05:50:11;;;;;;;4.40;2.55;;;16.50;52.90;;;;;;5120273;23;20229;-72
2022/11/26 05:52:38;;;;;;;3.10;2.30;;;16.50;52.80;;;;;;5002702;28;20202;-71
2022/11/26 05:55:07;;;;;;;3.22;2.22;;;16.50;52.80;;;;;;4996853;28;20201;-71
2022/11/26 05:57:36;;;;;;;5.10;2.70;;;16.50;52.80;;;;;;4996179;28;20197;-71
2022/11/26 06:00:05;;;;;;;2.53;2.05;;;16.50;52.70;;;;;;4995992;28;20226;-71
2022/11/26 06:02:38;;;;;;;3.97;2.30;;;16.50;52.60;;;;;;4997016;28;20205;-71
2022/11/26 06:05:06;;;;;;;3.13;2.10;;;16.50;52.80;;;;;;4995879;28;20610;-71
2022/11/26 06:07:33;;;;;;;5.07;2.13;;;16.50;52.60;;;;;;4995739;28;20201;-71
2022/11/26 06:10:00;;;;;;;4.22;2.35;;;16.50;52.70;;;;;;4995716;28;20225;-71
2022/11/26 06:12:27;;;;;;;3.28;2.10;;;16.50;52.60;;;;;;4995717;28;20194;-71
2022/11/26 06:14:55;;;;;;;3.10;2.65;;;16.50;52.70;;;;;;4979959;28;20204;-71
2022/11/26 06:17:22;;;;;;;2.67;2.30;;;16.50;52.80;;;;;;4995532;28;20204;-71
2022/11/26 06:19:49;;;;;;;3.97;2.40;;;16.50;52.60;;;;;;4995593;28;20228;-71
2022/11/26 06:22:16;;;;;;;4.28;2.40;;;16.60;52.70;;;;;;4995960;28;20225;-71
2022/11/26 06:24:43;;;;;;;3.80;2.13;;;16.60;52.70;;;;;;4995464;28;20198;-71
2022/11/26 06:27:10;;;;;;;2.60;2.20;;;16.50;52.80;;;;;;4995430;28;20216;-71
2022/11/26 06:29:37;;;;;;;4.20;2.20;;;16.50;52.80;;;;;;4995187;28;20213;-71
2022/11/26 06:32:05;;;;;;;2.95;2.00;;;16.60;52.90;;;;;;4995170;28;20201;-71
2022/11/26 06:34:32;;;;;;;3.22;2.30;;;16.60;52.80;;;;;;4995129;28;20201;-71
2022/11/26 06:36:59;;;;;;;2.65;2.22;;;16.50;52.80;;;;;;4996340;28;20209;-71
2022/11/26 06:39:26;;;;;;;2.72;2.33;;;16.50;52.90;;;;;;4995179;28;20711;-71
2022/11/26 06:41:53;;;;;;;3.33;2.25;;;16.50;52.90;;;;;;4995012;28;20588;-71
2022/11/26 06:44:20;;;;;;;3.85;2.50;;;16.50;52.70;;;;;;4996236;28;20560;-71
2022/11/26 06:46:47;;;;;;;3.45;2.53;;;16.50;52.80;;;;;;4995145;28;20208;-71
2022/11/26 06:49:16;;;;;;;2.60;2.33;;;16.60;52.90;;;;;;4996053;28;20220;-71
2022/11/26 06:51:43;;;;;;;3.88;2.78;;;16.50;52.70;;;;;;4995298;28;20665;-71
2022/11/26 06:54:10;;;;;;;4.00;2.63;;;16.50;52.70;;;;;;4994818;28;20198;-71
2022/11/26 06:56:38;;;;;;;3.75;2.58;;;16.50;52.70;;;;;;4994830;28;20208;-72
2022/11/26 06:59:05;;;;;;;3.13;2.50;;;16.50;52.60;;;;;;4994742;28;20692;-72
2022/11/26 07:01:32;;;;;;;2.60;2.20;;;16.50;52.40;;;;;;4994668;28;20202;-72
2022/11/26 07:03:59;;;;;;;2.60;2.33;;;16.60;52.50;;;;;;4994504;28;20225;-72
2022/11/26 07:06:30;;;;;;;2.50;2.30;;;16.60;52.40;;;;;;4995309;28;20197;-72
2022/11/26 07:08:58;;;;;;;2.53;2.00;;;16.60;52.30;;;;;;4994387;28;20240;-72
2022/11/26 07:11:26;;;;;;;2.40;2.20;;;16.60;52.10;;;;;;4994539;28;20204;-72
2022/11/26 07:13:53;;;;;;;3.20;2.20;;;16.60;52.10;;;;;;4993915;28;20590;-72
2022/11/26 07:16:20;;;;;;;3.67;2.45;;;16.60;52.10;;;;;;4994212;28;20687;-72
2022/11/26 07:18:48;;;;;;;3.30;2.53;;;16.70;52.30;;;;;;4995568;28;20588;-72
2022/11/26 07:21:15;;;;;;;2.80;2.30;;;16.70;53.00;;;;;;4994262;28;20226;-72
2022/11/26 07:23:43;;;;;;;2.78;2.25;;;16.80;52.20;;;;;;4994102;28;20218;-72
2022/11/26 07:26:11;;;;;;;3.13;2.40;;;16.80;52.00;;;;;;4994094;28;20212;-72
2022/11/26 07:28:38;;;;;;;3.47;2.75;;;16.90;52.10;;;;;;4994093;28;20221;-72
2022/11/26 07:31:07;;;;;;;3.10;2.47;;;16.90;52.10;;;;;;4994115;28;20198;-72
2022/11/26 07:33:34;;;;;;;3.42;2.30;;;17.00;52.60;;;;;;4993975;28;20197;-72
2022/11/26 07:36:01;;;;;;;3.03;2.50;;;17.00;51.70;;;;;;4994124;28;20198;-72
2022/11/26 07:38:29;;;;;;;2.88;2.30;;;17.00;51.70;;;;;;4994017;28;20272;-72
2022/11/26 07:41:02;;;;;;;3.50;2.65;;;17.00;51.60;;;;;;4994070;28;20401;-72
2022/11/26 07:43:29;;;;;;;2.60;2.40;;;17.00;51.50;;;;;;4993915;28;20217;-72
2022/11/26 07:45:57;;;;;;;3.08;2.13;;;17.10;51.80;;;;;;4993874;28;20288;-72
2022/11/26 07:48:24;;;;;;;3.50;2.30;;;17.10;51.90;;;;;;4993935;28;20193;-72
2022/11/26 07:50:51;;;;;;;2.45;2.20;;;17.10;51.90;;;;;;4993644;28;20209;-72
2022/11/26 07:53:18;;;;;;;3.35;2.40;;;17.10;51.70;;;;;;4993771;28;20653;-71
2022/11/26 07:55:45;;;;;;;3.25;2.50;;;17.10;51.70;;;;;;4993554;28;20288;-71
2022/11/26 07:58:14;;;;;;;4.07;2.30;;;17.10;51.50;;;;;;4995169;28;20197;-71
2022/11/26 08:00:41;;;;;;;3.67;2.50;;;17.10;51.70;;;;;;4994459;28;20648;-71
2022/11/26 08:03:09;;;;;;;3.63;2.60;;;17.10;51.70;;;;;;4993552;28;20218;-71
2022/11/26 08:05:35;;;;;;;2.40;2.20;;;17.20;51.80;;;;;;4993529;28;20197;-71
2022/11/26 08:08:02;;;;;;;3.40;2.00;;;17.20;51.70;;;;;;4993460;28;20227;-71
2022/11/26 08:10:29;;;;;;;3.30;2.47;;;17.20;51.70;;;;;;4993485;28;20233;-71
2022/11/26 08:12:57;;;;;;;3.63;2.45;;;17.20;51.80;;;;;;4993386;28;20209;-71
2022/11/26 08:15:25;;;;;;;2.53;2.10;;;17.20;51.60;;;;;;4993426;28;20204;-71
2022/11/26 08:17:54;;;;;;;2.50;2.10;;;17.20;51.70;;;;;;4993482;28;20201;-71
2022/11/26 08:20:21;;;;;;;3.10;2.15;;;17.30;51.70;;;;;;4993372;28;20757;-71
2022/11/26 08:22:48;;;;;;;2.78;2.00;;;17.30;51.80;;;;;;4993318;28;20704;-71
2022/11/26 08:25:15;;;;;;;4.03;2.55;;;17.30;51.40;;;;;;4993170;28;20216;-71
2022/11/26 08:27:42;;;;;;;3.22;2.30;;;17.30;51.60;;;;;;4992858;28;20201;-71
2022/11/26 08:30:11;;;;;;;4.88;2.33;;;17.30;51.60;;;;;;4993523;28;20700;-71
2022/11/26 08:32:39;;;;;;;5.07;2.50;;;17.30;51.60;;;;;;4993526;28;20198;-71
2022/11/26 08:35:07;;;;;;;3.03;2.72;;;17.40;51.70;;;;;;4993864;28;20566;-71
2022/11/26 08:37:34;;;;;;;3.08;2.30;;;17.40;51.60;;;;;;5006320;28;20201;-71
2022/11/26 08:40:01;;;;;;;3.28;2.47;;;17.40;51.70;;;;;;4993708;28;20217;-71
2022/11/26 08:42:28;;;;;;;4.70;2.42;;;17.40;51.50;;;;;;4993168;28;20680;-71
2022/11/26 08:44:55;;;;;;;3.05;2.22;;;17.40;51.70;;;;;;4994362;28;20248;-71
2022/11/26 08:47:22;;;;;;;2.80;2.20;;;17.40;51.60;;;;;;4993308;28;20565;-71
2022/11/26 08:49:50;;;;;;;2.60;2.40;;;17.40;51.50;;;;;;4993094;28;20221;-71
2022/11/26 08:52:18;;;;;;;2.53;2.13;;;17.40;51.60;;;;;;4993801;28;20209;-71
2022/11/26 08:54:45;;;;;;;4.57;2.72;;;17.40;51.50;;;;;;4993244;28;20216;-71
2022/11/26 08:57:12;;;;;;;4.38;2.92;;;17.40;51.50;;;;;;4993260;28;20204;-71
2022/11/26 08:59:39;;;;;;;4.07;2.45;;;17.50;51.50;;;;;;4993338;28;20236;-71
2022/11/26 09:02:06;;;;;;;4.10;2.47;;;17.50;51.40;;;;;;4993191;28;20201;-72
2022/11/26 09:04:33;;;;;;;3.60;2.50;;;17.50;51.50;;;;;;4994289;28;20680;-72
2022/11/26 09:07:01;;;;;;;2.40;2.03;;;17.50;51.40;;;;;;4993121;28;20201;-72
2022/11/26 09:09:29;;;;;;;2.75;2.45;;;17.60;51.50;;;;;;4993241;28;20661;-72
2022/11/26 09:11:57;;;;;;;3.15;2.00;;;17.60;51.20;;;;;;4992851;28;20197;-72
2022/11/26 09:14:26;;;;;;;2.30;2.10;;;17.60;51.30;;;;;;4993588;28;20208;-72
2022/11/26 09:16:53;;;;;;;2.50;2.10;;;17.60;51.20;;;;;;4993232;28;20200;-71
2022/11/26 09:19:20;;;;;;;2.20;1.90;;;17.70;51.20;;;;;;4993126;28;20217;-70
2022/11/26 09:21:47;;;;;;;5.05;2.60;;;17.80;51.20;;;;;;4994259;28;20182;-71
2022/11/26 09:24:16;;;;;;;3.40;2.65;;;17.80;51.10;;;;;;4993426;28;20613;-71
2022/11/26 09:26:44;;;;;;;4.90;2.85;;;17.80;51.00;;;;;;4994954;28;20204;-71
2022/11/26 09:29:12;;;;;;;5.18;2.42;;;17.70;50.90;;;;;;4995828;28;20218;-71
2022/11/26 09:31:39;;;;;;;3.58;2.50;;;17.70;51.20;;;;;;4993231;28;20692;-71
2022/11/26 09:34:06;;;;;;;3.42;2.60;;;17.70;51.30;;;;;;4993025;28;20216;-71
2022/11/26 09:36:33;;;;;;;3.97;2.90;;;17.60;51.20;;;;;;4994726;28;20186;-71
2022/11/26 09:39:00;;;;;;;3.80;3.13;;;17.70;51.80;;;;;;4996686;28;20213;-71
2022/11/26 09:41:35;;;;;;;3.53;2.70;;;17.70;51.70;;;;;;4997483;28;20208;-71
2022/11/26 09:44:23;;;;;;;3.75;2.85;;;17.60;51.80;;;;;;4996562;28;20221;-71
2022/11/26 09:46:56;;;;;;;3.35;2.72;;;17.70;52.80;;;;;;4997405;28;20240;-72
2022/11/26 09:49:22;;;;;;;4.10;2.70;;;17.60;52.80;;;;;;4996372;28;20223;-72
2022/11/26 09:51:51;;;;;;;3.20;2.70;;;17.70;52.20;;;;;;4997618;28;20204;-72
2022/11/26 09:54:20;;;;;;;4.43;2.92;;;17.70;52.00;;;;;;4996809;28;20201;-72
2022/11/26 09:56:49;;;;;;;4.15;3.00;;;17.70;51.90;;;;;;4996157;28;20201;-71
2022/11/26 09:59:18;;;;;;;5.00;2.67;;;17.70;52.00;;;;;;4997334;28;20224;-71
2022/11/26 10:01:45;;;;;;;5.38;2.60;;;17.80;51.90;;;;;;4996071;28;20197;-71
2022/11/26 10:04:23;;;;;;;5.70;3.10;;;17.80;52.00;;;;;;4995956;28;20221;-71
2022/11/26 10:06:53;;;;;;;3.78;3.13;;;17.80;52.00;;;;;;4996176;28;20190;-72
2022/11/26 10:09:27;;;;;;;3.85;2.90;;;17.90;52.00;;;;;;4996046;28;20223;-72
2022/11/26 10:11:59;;;;;;;4.18;2.50;;;18.00;51.70;;;;;;4995874;28;20285;-72
2022/11/26 10:14:32;;;;;;;3.97;2.97;;;18.00;51.60;;;;;;4995681;28;20189;-72
2022/11/26 10:17:07;;;;;;;3.63;2.80;;;18.00;51.70;;;;;;4996849;28;20181;-72
2022/11/26 10:19:37;;;;;;;3.45;3.00;;;18.10;51.80;;;;;;4995376;28;20217;-72
2022/11/26 10:22:05;;;;;;;4.25;2.90;;;18.10;51.40;;;;;;4996476;28;20189;-72
2022/11/26 10:24:34;;;;;;;3.67;3.25;;;18.20;51.60;;;;;;4995392;28;20220;-72
2022/11/26 10:27:09;;;;;;;4.65;2.97;;;18.20;51.70;;;;;;4995433;28;20570;-72
2022/11/26 10:29:38;;;;;;;4.25;2.50;;;18.20;51.50;;;;;;4996546;28;20227;-72
2022/11/26 10:32:13;;;;;;;4.28;2.50;;;18.20;51.20;;;;;;4995609;28;20198;-71
2022/11/26 10:34:42;;;;;;;5.95;2.70;;;18.30;51.20;;;;;;4979397;28;20199;-72
2022/11/26 10:37:09;;;;;;;3.30;2.70;;;18.30;51.20;;;;;;4995191;28;20208;-72
2022/11/26 10:39:36;;;;;;;4.88;2.72;;;18.30;50.90;;;;;;4995099;28;20700;-72
2022/11/26 10:42:09;;;;;;;3.38;2.60;;;18.30;50.90;;;;;;4995294;28;20201;-72
2022/11/26 10:44:38;;;;;;;4.15;2.70;;;18.30;50.90;;;;;;4995153;28;20213;-72
2022/11/26 10:47:26;;;;;;;3.78;2.30;;;18.30;51.10;;;;;;4979442;28;20288;-72
2022/11/26 10:49:54;;;;;;;4.38;2.42;;;18.20;51.00;;;;;;4994779;28;20233;-72
2022/11/26 10:52:23;;;;;;;2.38;2.08;;;18.20;51.00;;;;;;4979420;28;20650;-71
2022/11/26 10:55:09;;;;;;;4.43;2.75;;;18.20;51.10;;;;;;4996604;28;20548;-71
2022/11/26 10:57:37;;;;;;;5.00;2.80;;;18.20;51.20;;;;;;4998690;28;20264;-71
2022/11/26 11:00:06;;;;;;;5.10;3.22;;;18.20;51.20;;;;;;4994839;28;20312;-71
2022/11/26 11:02:35;;;;;;;5.75;2.85;;;18.30;51.00;;;;;;4994949;28;20208;-71
2022/11/26 11:05:04;;;;;;;3.65;2.63;;;18.30;51.00;;;;;;4995305;28;20623;-71
2022/11/26 11:07:40;;;;;;;6.10;2.90;;;18.20;50.90;;;;;;4994828;28;20352;-71
2022/11/26 11:10:14;;;;;;;4.57;2.83;;;18.20;51.00;;;;;;4995026;28;20217;-70
2022/11/26 11:12:49;;;;;;;4.53;2.83;;;18.20;51.00;;;;;;4994954;28;20607;-70
2022/11/26 11:15:22;;;;;;;3.20;2.50;;;18.30;51.20;;;;;;4996718;28;20177;-70
2022/11/26 11:17:55;;;;;;;5.90;2.80;;;18.30;51.10;;;;;;4995510;28;20235;-70
2022/11/26 11:20:33;;;;;;;3.35;2.58;;;18.30;51.00;;;;;;4994790;28;20240;-70
2022/11/26 11:23:02;;;;;;;5.78;2.83;;;18.30;51.20;;;;;;4994459;28;20610;-70
2022/11/26 11:25:30;;;;;;;4.25;2.70;;;18.40;51.20;;;;;;4994565;28;20704;-70
2022/11/26 11:28:04;;;;;;;5.78;2.90;;;18.40;51.20;;;;;;4994234;28;20197;-70
2022/11/26 11:30:33;;;;;;;4.00;2.50;;;18.40;51.00;;;;;;4994280;28;20192;-70
2022/11/26 11:33:10;;;;;;;4.20;2.78;;;18.50;51.10;;;;;;4994273;28;20719;-70
2022/11/26 11:35:37;;;;;;;3.47;2.40;;;18.50;51.10;;;;;;4994209;28;20231;-72
2022/11/26 11:38:04;;;;;;;3.55;2.50;;;18.50;50.90;;;;;;4994376;28;20653;-72
2022/11/26 11:40:32;;;;;;;3.35;2.28;;;18.60;50.90;;;;;;4994137;28;20735;-72
2022/11/26 11:43:00;;;;;;;3.85;2.58;;;18.60;51.00;;;;;;4994392;28;20197;-72
2022/11/26 11:45:33;;;;;;;4.45;2.53;;;18.70;51.10;;;;;;4994574;28;20206;-71
2022/11/26 11:48:04;;;;;;;2.95;2.50;;;18.80;51.30;;;;;;4994548;28;20201;-71
2022/11/26 11:50:33;;;;;;;2.53;2.00;;;18.80;51.10;;;;;;4993927;28;20217;-71
2022/11/26 11:53:20;;;;;;;3.70;2.30;;;18.90;51.00;;;;;;4993830;28;20224;-71
2022/11/26 11:55:51;;;;;;;4.07;2.45;;;19.00;51.20;;;;;;4991598;28;20198;-71
2022/11/26 11:58:28;;;;;;;3.95;2.60;;;19.00;51.30;;;;;;4993952;28;20220;-71
2022/11/26 12:01:00;;;;;;;4.20;2.50;;;19.10;51.40;;;;;;4995252;28;20235;-70
2022/11/26 12:03:58;;;;;;;2.50;2.30;;;19.10;50.90;;;;;;4993581;28;20216;-70
2022/11/26 12:06:31;;;;;;;3.85;2.40;;;19.20;50.70;;;;;;4994234;28;20201;-70
2022/11/26 12:09:05;;;;;;;6.22;2.55;;;19.20;51.50;;;;;;4993603;28;20700;-70
2022/11/26 12:11:38;;;;;;;5.93;2.80;;;19.20;50.80;;;;;;4994657;28;20277;-70
2022/11/26 12:14:07;;;;;;;5.70;2.63;;;19.30;50.60;;;;;;4993479;28;20567;-70
2022/11/26 12:16:37;;;;;;;5.35;2.60;;;19.30;50.40;;;;;;4993701;28;20204;-70
2022/11/26 12:19:06;;;;;;;4.40;2.78;;;19.30;50.50;;;;;;4993398;28;20221;-71
2022/11/26 12:21:36;;;;;;;5.25;2.47;;;19.30;50.60;;;;;;4993363;28;20296;-71
2022/11/26 12:24:06;;;;;;;3.70;2.78;;;19.30;50.20;;;;;;4993232;28;20220;-71
2022/11/26 12:26:34;;;;;;;4.45;2.50;;;19.30;50.30;;;;;;4994905;28;20194;-71
2022/11/26 12:29:05;;;;;;;3.83;2.45;;;19.30;50.10;;;;;;4993556;28;20584;-71
2022/11/26 12:31:35;;;;;;;3.42;2.20;;;19.30;50.30;;;;;;4994691;28;20193;-71
2022/11/26 12:34:05;;;;;;;3.75;2.58;;;19.30;50.30;;;;;;4993190;28;20193;-71
2022/11/26 12:36:35;;;;;;;5.43;2.35;;;19.20;50.20;;;;;;4993229;28;20208;-71
2022/11/26 12:39:04;;;;;;;6.03;2.70;;;19.20;50.20;;;;;;4994616;28;20296;-71
2022/11/26 12:41:33;;;;;;;4.32;2.33;;;19.20;50.10;;;;;;4994591;28;20189;-71
2022/11/26 12:44:04;;;;;;;4.35;2.70;;;19.20;50.10;;;;;;4993286;28;20217;-71
2022/11/26 12:46:35;;;;;;;4.38;2.40;;;19.20;50.30;;;;;;4993240;28;20212;-71
2022/11/26 12:49:08;;;;;;;2.97;2.30;;;19.20;50.40;;;;;;4993081;28;20225;-71
2022/11/26 12:51:38;;;;;;;4.22;2.45;;;19.20;50.40;;;;;;4993488;28;20340;-71
2022/11/26 12:54:10;;;;;;;5.22;2.53;;;19.20;50.30;;;;;;4993309;28;20204;-71